createdAt,value
2022-08-04T00:01:02.905Z,101026.53
2022-08-04T00:02:11.924Z,101033.31
2022-08-04T00:03:21.513Z,101038.50
2022-08-04T00:04:33.981Z,101033.06
2022-08-04T00:05:47.518Z,101038.75
2022-08-04T00:07:01.042Z,101033.59
2022-08-04T00:08:12.015Z,101027.59
2022-08-04T00:09:23.373Z,101025.16
2022-08-04T00:10:28.415Z,101028.66
2022-08-04T00:11:34.500Z,101035.19
2022-08-04T00:12:42.291Z,101029.19
2022-08-04T00:14:03.306Z,101027.31
2022-08-04T00:15:10.403Z,101022.13
2022-08-04T00:16:19.029Z,101021.31
2022-08-04T00:17:24.403Z,101023.19
2022-08-04T00:18:35.941Z,101021.56
2022-08-04T00:19:41.630Z,101019.94
2022-08-04T00:20:45.761Z,101018.56
2022-08-04T00:21:52.346Z,101018.56
2022-08-04T00:22:55.771Z,101019.66
2022-08-04T00:24:11.023Z,101028.09
2022-08-04T00:25:16.948Z,101021.00
2022-08-04T00:26:21.664Z,101020.44
2022-08-04T00:27:25.388Z,101024.81
2022-08-04T00:28:28.560Z,101023.97
2022-08-04T00:29:33.520Z,101025.88
2022-08-04T00:30:35.967Z,101013.38
2022-08-04T00:31:56.343Z,101020.69
2022-08-04T00:33:01.695Z,101016.06
2022-08-04T00:34:06.137Z,101020.13
2022-08-04T00:35:10.935Z,101011.19
2022-08-04T00:36:14.959Z,101022.06
2022-08-04T00:37:22.575Z,101014.97
2022-08-04T00:38:30.294Z,101016.91
2022-08-04T00:39:33.584Z,101017.16
2022-08-04T00:40:49.065Z,101014.94
2022-08-04T00:42:19.665Z,101027.22
2022-08-04T00:43:30.624Z,101020.13
2022-08-04T00:44:45.760Z,101008.44
2022-08-04T00:46:19.877Z,101010.59
2022-08-04T00:47:40.519Z,101012.22
2022-08-04T00:49:04.280Z,101010.34
2022-08-04T00:50:11.482Z,101013.06
2022-08-04T00:51:27.053Z,101007.63
2022-08-04T00:52:54.536Z,101010.59
2022-08-04T00:54:07.396Z,101009.78
2022-08-04T00:55:43.284Z,101006.78
2022-08-04T00:57:04.677Z,101005.16
2022-08-04T00:58:35.797Z,101004.34
2022-08-04T01:00:04.944Z,100997.53
2022-08-04T01:01:15.695Z,101002.72
2022-08-04T01:02:25.707Z,101004.34
2022-08-04T01:03:44.094Z,100995.38
2022-08-04T01:04:56.450Z,100998.09
2022-08-04T01:06:07.423Z,100996.44
2022-08-04T01:07:24.897Z,100996.44
2022-08-04T01:08:56.475Z,100996.44
2022-08-04T01:10:07.734Z,100971.63
2022-08-04T01:11:25.556Z,100993.16
2022-08-04T01:12:52.314Z,100995.88
2022-08-04T01:14:10.588Z,100997.00
2022-08-04T01:15:22.095Z,100997.00
2022-08-04T01:16:27.609Z,100994.28
2022-08-04T01:17:43.261Z,100989.94
2022-08-04T01:18:55.716Z,100992.38
2022-08-04T01:20:05.531Z,100987.22
2022-08-04T01:21:32.119Z,100989.09
2022-08-04T01:23:10.628Z,100982.84
2022-08-04T01:24:40.641Z,100989.38
2022-08-04T01:26:42.345Z,100990.44
2022-08-04T01:28:04.763Z,100985.00
2022-08-04T01:29:14.209Z,100987.97
2022-08-04T01:30:18.554Z,100981.72
2022-08-04T01:31:26.410Z,100979.00
2022-08-04T01:32:37.960Z,100985.53
2022-08-04T01:34:03.986Z,100982.81
2022-08-04T01:35:46.590Z,100980.91
2022-08-04T01:36:58.113Z,100978.47
2022-08-04T01:38:20.090Z,100974.94
2022-08-04T01:39:41.036Z,100986.63
2022-08-04T01:40:45.641Z,100984.97
2022-08-04T01:41:57.791Z,100970.59
2022-08-04T01:43:03.109Z,100977.91
2022-08-04T01:44:07.057Z,100981.69
2022-08-04T01:45:14.909Z,100970.03
2022-08-04T01:46:18.014Z,100969.19
2022-08-04T01:47:22.906Z,100966.75
2022-08-04T01:48:27.758Z,100959.69
2022-08-04T01:49:32.110Z,100972.72
2022-08-04T01:50:45.826Z,100958.31
2022-08-04T01:51:56.401Z,100965.91
2022-08-04T01:53:00.334Z,100959.91
2022-08-04T01:54:02.637Z,100963.72
2022-08-04T01:55:10.450Z,100959.09
2022-08-04T01:56:13.050Z,100957.44
2022-08-04T01:57:38.637Z,100958.81
2022-08-04T01:58:42.833Z,100958.81
2022-08-04T01:59:47.868Z,100958.81
2022-08-04T02:00:59.917Z,100958.81
2022-08-04T02:02:02.430Z,100963.69
2022-08-04T02:03:05.904Z,100960.13
2022-08-04T02:04:18.796Z,100962.06
2022-08-04T02:06:03.889Z,100962.31
2022-08-04T02:07:11.719Z,100968.81
2022-08-04T02:08:32.747Z,100962.56
2022-08-04T02:09:55.324Z,100960.09
2022-08-04T02:11:11.368Z,100959.31
2022-08-04T02:12:36.273Z,100956.84
2022-08-04T02:13:49.544Z,100958.75
2022-08-04T02:14:59.130Z,100957.09
2022-08-04T02:16:14.553Z,100955.47
2022-08-04T02:17:29.802Z,100951.94
2022-08-04T02:18:44.841Z,100953.03
2022-08-04T02:20:01.645Z,100947.84
2022-08-04T02:21:06.571Z,100947.84
2022-08-04T02:22:11.593Z,100946.19
2022-08-04T02:23:17.233Z,100951.63
2022-08-04T02:24:24.365Z,100946.44
2022-08-04T02:25:30.067Z,100950.00
2022-08-04T02:26:34.635Z,100951.06
2022-08-04T02:28:00.578Z,100948.34
2022-08-04T02:29:12.629Z,100951.06
2022-08-04T02:30:14.836Z,100952.13
2022-08-04T02:31:31.942Z,100951.34
2022-08-04T02:32:39.910Z,100952.38
2022-08-04T02:33:45.533Z,100950.78
2022-08-04T02:34:53.383Z,100948.06
2022-08-04T02:36:02.217Z,100944.78
2022-08-04T02:37:07.219Z,100942.88
2022-08-04T02:38:25.675Z,100942.06
2022-08-04T02:39:48.382Z,100949.38
2022-08-04T02:40:54.120Z,100948.59
2022-08-04T02:42:01.119Z,100949.66
2022-08-04T02:43:04.448Z,100946.94
2022-08-04T02:44:10.106Z,100945.31
2022-08-04T02:45:12.877Z,100942.59
2022-08-04T02:46:18.660Z,100947.19
2022-08-04T02:47:22.653Z,100938.47
2022-08-04T02:48:31.341Z,100930.34
2022-08-04T02:49:37.013Z,100934.16
2022-08-04T02:50:45.908Z,100937.91
2022-08-04T02:51:52.877Z,100935.22
2022-08-04T02:52:57.978Z,100936.28
2022-08-04T02:54:04.082Z,100939.84
2022-08-04T02:55:10.999Z,100937.38
2022-08-04T02:56:19.952Z,100940.09
2022-08-04T02:57:25.467Z,100940.09
2022-08-04T02:58:34.476Z,100939.28
2022-08-04T02:59:53.601Z,100938.44
2022-08-04T03:00:55.916Z,100930.56
2022-08-04T03:01:59.168Z,100932.47
2022-08-04T03:03:21.297Z,100937.09
2022-08-04T03:04:36.650Z,100931.09
2022-08-04T03:06:00.992Z,100923.78
2022-08-04T03:07:37.356Z,100927.00
2022-08-04T03:09:24.495Z,100929.47
2022-08-04T03:11:01.067Z,100931.38
2022-08-04T03:12:27.053Z,100934.06
2022-08-04T03:13:41.704Z,100924.53
2022-08-04T03:15:23.864Z,100925.38
2022-08-04T03:17:04.060Z,100925.38
2022-08-04T03:18:47.011Z,100924.53
2022-08-04T03:20:23.935Z,100926.19
2022-08-04T03:21:49.427Z,100925.63
2022-08-04T03:23:23.789Z,100929.19
2022-08-04T03:24:54.743Z,100927.53
2022-08-04T03:26:29.658Z,100926.72
2022-08-04T03:28:03.581Z,100931.31
2022-08-04T03:29:36.525Z,100920.47
2022-08-04T03:30:59.654Z,100930.75
2022-08-04T03:32:33.814Z,100928.06
2022-08-04T03:33:57.440Z,100929.13
2022-08-04T03:35:38.087Z,100927.47
2022-08-04T03:37:17.116Z,100928.56
2022-08-04T03:38:43.972Z,100928.84
2022-08-04T03:40:32.692Z,100929.91
2022-08-04T03:42:04.022Z,100920.97
2022-08-04T03:43:57.887Z,100927.44
2022-08-04T03:45:34.610Z,100923.13
2022-08-04T03:47:26.097Z,100919.84
2022-08-04T03:48:53.037Z,100925.25
2022-08-04T03:50:31.050Z,100911.94
2022-08-04T03:51:57.353Z,100922.81
2022-08-04T03:53:33.474Z,100920.09
2022-08-04T03:54:54.884Z,100919.28
2022-08-04T03:56:36.034Z,100925.78
2022-08-04T03:57:54.294Z,100919.28
2022-08-04T03:59:35.691Z,100919.28
2022-08-04T04:00:46.647Z,100924.69
2022-08-04T04:02:40.642Z,100921.97
2022-08-04T04:04:01.149Z,100917.13
2022-08-04T04:06:00.114Z,100914.41
2022-08-04T04:07:35.820Z,100917.94
2022-08-04T04:09:20.784Z,100919.31
2022-08-04T04:10:43.392Z,100921.75
2022-08-04T04:12:16.297Z,100921.50
2022-08-04T04:13:34.423Z,100911.47
2022-08-04T04:14:56.090Z,100925.59
2022-08-04T04:16:29.345Z,100923.72
2022-08-04T04:18:02.273Z,100913.38
2022-08-04T04:19:23.553Z,100922.91
2022-08-04T04:20:40.169Z,100923.75
2022-08-04T04:22:25.684Z,100911.53
2022-08-04T04:23:58.016Z,100920.50
2022-08-04T04:25:26.883Z,100919.16
2022-08-04T04:26:40.523Z,100917.25
2022-08-04T04:28:45.763Z,100919.72
2022-08-04T04:29:59.180Z,100917.56
2022-08-04T04:31:10.121Z,100918.13
2022-08-04T04:32:23.309Z,100917.84
2022-08-04T04:33:42.174Z,100913.78
2022-08-04T04:34:57.143Z,100918.94
2022-08-04T04:36:08.281Z,100919.25
2022-08-04T04:37:49.011Z,100918.97
2022-08-04T04:39:09.202Z,100904.91
2022-08-04T04:40:25.558Z,100910.09
2022-08-04T04:42:03.236Z,100907.69
2022-08-04T04:43:16.661Z,100900.88
2022-08-04T04:44:47.157Z,100908.50
2022-08-04T04:45:56.557Z,100911.50
2022-08-04T04:47:09.232Z,100905.00
2022-08-04T04:48:18.882Z,100906.38
2022-08-04T04:49:29.137Z,100901.22
2022-08-04T04:50:43.749Z,100900.69
2022-08-04T04:51:50.184Z,100898.53
2022-08-04T04:53:03.942Z,100903.16
2022-08-04T04:54:13.952Z,100901.81
2022-08-04T04:55:22.677Z,100898.56
2022-08-04T04:56:32.166Z,100899.97
2022-08-04T04:57:53.990Z,100896.97
2022-08-04T04:58:59.966Z,100892.63
2022-08-04T05:00:06.173Z,100894.81
2022-08-04T05:01:32.670Z,100897.00
2022-08-04T05:03:00.448Z,100897.56
2022-08-04T05:04:19.308Z,100893.75
2022-08-04T05:05:59.655Z,100892.16
2022-08-04T05:07:22.116Z,100890.53
2022-08-04T05:09:00.471Z,100890.81
2022-08-04T05:10:14.219Z,100899.25
2022-08-04T05:11:39.841Z,100887.81
2022-08-04T05:14:35.131Z,100895.16
2022-08-04T05:14:41.431Z,100893.59
2022-08-04T05:15:47.847Z,100882.16
2022-08-04T05:16:59.277Z,100889.78
2022-08-04T05:18:04.380Z,100890.88
2022-08-04T05:19:18.552Z,100897.44
2022-08-04T05:20:23.966Z,100903.16
2022-08-04T05:21:39.136Z,100902.59
2022-08-04T05:22:49.027Z,100892.78
2022-08-04T05:23:57.924Z,100897.97
2022-08-04T05:25:09.632Z,100897.16
2022-08-04T05:26:15.380Z,100891.19
2022-08-04T05:27:21.963Z,100896.91
2022-08-04T05:28:28.714Z,100890.09
2022-08-04T05:29:36.459Z,100892.00
2022-08-04T05:30:48.659Z,100894.19
2022-08-04T05:31:55.488Z,100894.19
2022-08-04T05:33:03.695Z,100891.72
2022-08-04T05:34:09.567Z,100890.91
2022-08-04T05:35:15.941Z,100891.19
2022-08-04T05:36:42.303Z,100890.06
2022-08-04T05:37:48.400Z,100890.88
2022-08-04T05:39:07.182Z,100885.47
2022-08-04T05:40:12.906Z,100889.00
2022-08-04T05:41:16.654Z,100880.84
2022-08-04T05:42:19.664Z,100887.88
2022-08-04T05:43:28.440Z,100888.69
2022-08-04T05:44:33.344Z,100889.50
2022-08-04T05:45:39.243Z,100880.22
2022-08-04T05:46:42.840Z,100883.47
2022-08-04T05:47:46.712Z,100890.53
2022-08-04T05:48:49.715Z,100885.59
2022-08-04T05:50:01.164Z,100876.31
2022-08-04T05:51:05.724Z,100879.53
2022-08-04T05:52:11.301Z,100877.38
2022-08-04T05:53:15.346Z,100880.91
2022-08-04T05:54:21.931Z,100877.88
2022-08-04T05:55:48.718Z,100879.75
2022-08-04T05:56:50.991Z,100880.25
2022-08-04T05:57:55.782Z,100877.78
2022-08-04T05:59:02.317Z,100876.09
2022-08-04T06:00:31.689Z,100877.19
2022-08-04T06:01:32.756Z,100882.88
2022-08-04T06:02:58.122Z,100875.75
2022-08-04T06:04:05.744Z,100871.66
2022-08-04T06:05:15.958Z,100877.38
2022-08-04T06:06:19.866Z,100877.63
2022-08-04T06:07:23.285Z,100874.31
2022-08-04T06:08:25.885Z,100870.19
2022-08-04T06:09:29.666Z,100873.16
2022-08-04T06:10:34.558Z,100875.34
2022-08-04T06:12:00.709Z,100876.09
2022-08-04T06:13:07.093Z,100873.63
2022-08-04T06:14:15.722Z,100873.91
2022-08-04T06:15:21.363Z,100875.28
2022-08-04T06:16:35.904Z,100875.50
2022-08-04T06:19:57.098Z,100864.84
2022-08-04T06:19:59.392Z,100871.91
2022-08-04T06:20:39.880Z,100879.53
2022-08-04T06:21:56.694Z,100876.22
2022-08-04T06:23:02.484Z,100875.13
2022-08-04T06:24:10.752Z,100874.56
2022-08-04T06:25:19.137Z,100871.25
2022-08-04T06:26:23.173Z,100865.50
2022-08-04T06:27:26.847Z,100869.31
2022-08-04T06:28:31.372Z,100866.81
2022-08-04T06:29:51.797Z,100865.13
2022-08-04T06:32:27.132Z,100859.91
2022-08-04T06:32:34.783Z,100866.97
2022-08-04T06:33:54.830Z,100862.53
2022-08-04T06:35:01.920Z,100861.66
2022-08-04T06:36:07.645Z,100862.72
2022-08-04T06:37:10.712Z,100857.78
2022-08-04T06:38:14.439Z,100866.22
2022-08-04T06:39:18.741Z,100864.53
2022-08-04T06:40:31.992Z,100859.63
2022-08-04T06:41:35.836Z,100863.69
2022-08-04T06:42:59.331Z,100860.91
2022-08-04T06:44:05.033Z,100858.66
2022-08-04T06:45:11.929Z,100861.63
2022-08-04T06:46:15.467Z,100856.41
2022-08-04T06:47:21.404Z,100852.00
2022-08-04T06:48:33.312Z,100854.16
2022-08-04T06:49:54.997Z,100856.81
2022-08-04T06:51:31.860Z,100857.56
2022-08-04T06:52:25.074Z,100852.84
2022-08-04T06:53:28.681Z,100853.06
2022-08-04T06:54:31.120Z,100859.28
2022-08-04T06:55:35.539Z,100852.16
2022-08-04T06:56:41.627Z,100859.47
2022-08-04T06:57:45.951Z,100851.47
2022-08-04T06:58:51.544Z,100860.72
2022-08-04T06:59:58.170Z,100857.94
2022-08-04T07:01:04.171Z,100855.41
2022-08-04T07:02:07.738Z,100852.91
2022-08-04T07:03:12.149Z,100846.34
2022-08-04T07:04:14.872Z,100851.22
2022-08-04T07:05:19.129Z,100853.38
2022-08-04T07:06:22.502Z,100851.16
2022-08-04T07:07:37.229Z,100850.56
2022-08-04T07:08:50.928Z,100850.47
2022-08-04T07:09:53.710Z,100854.75
2022-08-04T07:10:58.651Z,100848.09
2022-08-04T07:12:02.779Z,100847.72
2022-08-04T07:13:07.510Z,100850.06
2022-08-04T07:14:11.286Z,100849.41
2022-08-04T07:15:14.546Z,100847.63
2022-08-04T07:16:20.084Z,100844.22
2022-08-04T07:17:23.817Z,100845.16
2022-08-04T07:18:32.950Z,100844.47
2022-08-04T07:19:36.540Z,100842.44
2022-08-04T07:20:43.045Z,100851.38
2022-08-04T07:22:16.835Z,100847.44
2022-08-04T07:23:12.059Z,100848.13
2022-08-04T07:24:17.479Z,100844.19
2022-08-04T07:25:22.185Z,100844.91
2022-08-04T07:26:44.928Z,100839.84
2022-08-04T07:27:49.356Z,100845.75
2022-08-04T07:28:52.675Z,100837.44
2022-08-04T07:29:56.059Z,100841.72
2022-08-04T07:30:59.843Z,100838.84
2022-08-04T07:32:04.626Z,100842.28
2022-08-04T07:33:09.076Z,100843.81
2022-08-04T07:34:21.469Z,100842.91
2022-08-04T07:36:05.458Z,100845.53
2022-08-04T07:36:55.209Z,100841.22
2022-08-04T07:37:58.402Z,100845.81
2022-08-04T07:39:02.040Z,100847.63
2022-08-04T07:40:06.488Z,100833.81
2022-08-04T07:42:33.932Z,100863.28
2022-08-04T07:43:36.982Z,100838.78
2022-08-04T07:44:40.209Z,100837.84
2022-08-04T07:45:43.248Z,100844.84
2022-08-04T07:46:47.495Z,100843.09
2022-08-04T07:48:05.245Z,100839.44
2022-08-04T07:49:09.475Z,100838.16
2022-08-04T07:50:13.001Z,100843.53
2022-08-04T07:51:17.503Z,100839.06
2022-08-04T07:52:21.176Z,100833.75
2022-08-04T07:53:54.186Z,100833.94
2022-08-04T07:54:49.250Z,100836.56
2022-08-04T07:55:52.400Z,100836.75
2022-08-04T07:56:56.406Z,100834.19
2022-08-04T07:57:58.606Z,100832.47
2022-08-04T07:59:02.414Z,100837.00
2022-08-04T08:00:06.446Z,100836.09
2022-08-04T08:01:15.667Z,100826.88
2022-08-04T08:02:20.536Z,100833.06
2022-08-04T08:03:25.743Z,100832.94
2022-08-04T08:04:29.328Z,100841.03
2022-08-04T08:05:32.514Z,100848.34
2022-08-04T08:06:42.695Z,100839.47
2022-08-04T08:07:51.020Z,100844.50
2022-08-04T08:08:59.521Z,100839.19
2022-08-04T08:10:05.454Z,100837.44
2022-08-04T08:12:36.766Z,100840.88
2022-08-04T08:12:52.430Z,100844.28
2022-08-04T08:13:55.269Z,100824.06
2022-08-04T08:14:58.840Z,100829.75
2022-08-04T08:16:02.901Z,100825.75
2022-08-04T08:17:05.740Z,100822.03
2022-08-04T08:18:09.002Z,100830.94
2022-08-04T08:19:12.731Z,100827.72
2022-08-04T08:20:16.028Z,100823.69
2022-08-04T08:21:33.758Z,100830.34
2022-08-04T08:22:36.807Z,100831.00
2022-08-04T08:23:40.540Z,100822.59
2022-08-04T08:24:42.807Z,100824.59
2022-08-04T08:25:46.499Z,100820.84
2022-08-04T08:26:49.961Z,100825.88
2022-08-04T08:27:56.258Z,100827.31
2022-08-04T08:29:00.157Z,100828.81
2022-08-04T08:30:02.349Z,100822.81
2022-08-04T08:31:07.286Z,100827.00
2022-08-04T08:32:14.126Z,100822.16
2022-08-04T08:33:17.487Z,100829.63
2022-08-04T08:34:28.097Z,100826.38
2022-08-04T08:35:39.785Z,100810.50
2022-08-04T08:37:00.783Z,100815.50
2022-08-04T08:38:05.235Z,100819.22
2022-08-04T08:39:13.158Z,100813.06
2022-08-04T08:40:32.348Z,100808.19
2022-08-04T08:42:16.255Z,100815.13
2022-08-04T08:44:05.968Z,100811.22
2022-08-04T08:45:34.297Z,100816.09
2022-08-04T08:46:57.988Z,100805.25
2022-08-04T08:48:38.556Z,100801.00
2022-08-04T08:50:34.954Z,100805.50
2022-08-04T08:51:56.924Z,100807.63
2022-08-04T08:53:24.568Z,100801.16
2022-08-04T08:54:47.606Z,100798.53
2022-08-04T08:56:09.233Z,100797.88
2022-08-04T08:57:23.736Z,100801.91
2022-08-04T08:58:40.311Z,100800.94
2022-08-04T09:00:02.316Z,100802.69
2022-08-04T09:01:13.341Z,100795.06
2022-08-04T09:02:40.683Z,100794.19
2022-08-04T09:04:23.530Z,100796.09
2022-08-04T09:05:44.145Z,100798.13
2022-08-04T09:07:01.191Z,100796.50
2022-08-04T09:08:21.398Z,100797.91
2022-08-04T09:09:49.068Z,100793.50
2022-08-04T09:10:59.964Z,100786.47
2022-08-04T09:12:07.916Z,100786.13
2022-08-04T09:13:17.769Z,100788.56
2022-08-04T09:14:25.456Z,100786.28
2022-08-04T09:15:37.451Z,100789.19
2022-08-04T09:16:46.462Z,100788.97
2022-08-04T09:17:53.477Z,100785.19
2022-08-04T09:19:06.145Z,100785.81
2022-08-04T09:20:16.273Z,100787.22
2022-08-04T09:21:27.030Z,100781.19
2022-08-04T09:22:39.996Z,100785.69
2022-08-04T09:23:53.341Z,100781.56
2022-08-04T09:25:04.738Z,100776.50
2022-08-04T09:26:14.204Z,100780.22
2022-08-04T09:27:20.215Z,100788.19
2022-08-04T09:28:52.184Z,100779.53
2022-08-04T09:29:54.564Z,100778.84
2022-08-04T09:31:05.671Z,100782.91
2022-08-04T09:32:17.137Z,100788.88
2022-08-04T09:33:44.816Z,100785.13
2022-08-04T09:35:06.063Z,100776.63
2022-08-04T09:36:28.709Z,100778.81
2022-08-04T09:37:46.147Z,100779.06
2022-08-04T09:39:00.371Z,100780.13
2022-08-04T09:40:08.919Z,100780.41
2022-08-04T09:41:49.201Z,100775.22
2022-08-04T09:43:21.528Z,100774.44
2022-08-04T09:44:50.368Z,100777.88
2022-08-04T09:46:02.396Z,100773.09
2022-08-04T09:47:13.842Z,100777.22
2022-08-04T09:48:26.310Z,100771.94
2022-08-04T09:49:36.835Z,100770.56
2022-08-04T09:50:40.635Z,100767.88
2022-08-04T09:51:59.599Z,100777.56
2022-08-04T09:53:14.803Z,100768.22
2022-08-04T09:54:30.915Z,100777.44
2022-08-04T09:55:53.832Z,100771.22
2022-08-04T09:57:08.997Z,100771.69
2022-08-04T09:58:22.828Z,100766.91
2022-08-04T09:59:28.033Z,100753.91
2022-08-04T10:00:40.870Z,100757.13
2022-08-04T10:01:46.950Z,100761.50
2022-08-04T10:03:02.862Z,100754.00
2022-08-04T10:04:10.008Z,100766.69
2022-08-04T10:05:15.920Z,100761.13
2022-08-04T10:07:00.040Z,100764.38
2022-08-04T10:08:23.932Z,100759.66
2022-08-04T10:09:45.028Z,100766.69
2022-08-04T10:10:56.747Z,100764.97
2022-08-04T10:12:17.863Z,100760.94
2022-08-04T10:13:29.790Z,100762.91
2022-08-04T10:14:47.088Z,100753.06
2022-08-04T10:16:07.299Z,100757.13
2022-08-04T10:17:32.827Z,100755.16
2022-08-04T10:18:46.819Z,100761.38
2022-08-04T10:20:03.356Z,100751.38
2022-08-04T10:21:15.666Z,100748.13
2022-08-04T10:22:29.566Z,100746.53
2022-08-04T10:23:55.359Z,100748.13
2022-08-04T10:25:39.974Z,100751.38
2022-08-04T10:26:43.958Z,100756.31
2022-08-04T10:27:54.181Z,100754.13
2022-08-04T10:29:04.334Z,100743.63
2022-08-04T10:30:12.134Z,100743.03
2022-08-04T10:31:21.914Z,100741.16
2022-08-04T10:32:29.478Z,100749.94
2022-08-04T10:33:35.387Z,100734.94
2022-08-04T10:34:44.482Z,100738.03
2022-08-04T10:35:52.182Z,100735.63
2022-08-04T10:37:14.103Z,100735.97
2022-08-04T10:38:26.789Z,100742.69
2022-08-04T10:40:08.248Z,100732.06
2022-08-04T10:41:18.621Z,100729.47
2022-08-04T10:42:26.085Z,100721.72
2022-08-04T10:43:42.549Z,100729.91
2022-08-04T10:45:01.376Z,100732.16
2022-08-04T10:46:09.552Z,100729.72
2022-08-04T10:47:16.718Z,100719.72
2022-08-04T10:48:34.983Z,100723.16
2022-08-04T10:49:44.007Z,100727.34
2022-08-04T10:51:01.472Z,100714.50
2022-08-04T10:52:09.820Z,100713.03
2022-08-04T10:53:17.489Z,100711.97
2022-08-04T10:54:27.526Z,100717.63
2022-08-04T10:56:06.986Z,100713.81
2022-08-04T10:57:08.080Z,100711.91
2022-08-04T10:58:17.468Z,100706.44
2022-08-04T10:59:29.881Z,100707.78
2022-08-04T11:00:35.987Z,100703.13
2022-08-04T11:02:00.596Z,100705.63
2022-08-04T11:03:12.397Z,100703.38
2022-08-04T11:04:27.130Z,100705.06
2022-08-04T11:05:43.678Z,100700.44
2022-08-04T11:06:47.582Z,100698.16
2022-08-04T11:07:55.486Z,100699.91
2022-08-04T11:09:00.229Z,100696.75
2022-08-04T11:10:02.853Z,100692.78
2022-08-04T11:11:13.987Z,100696.38
2022-08-04T11:12:19.765Z,100698.44
2022-08-04T11:13:29.970Z,100697.69
2022-08-04T11:14:39.906Z,100698.59
2022-08-04T11:15:49.129Z,100694.34
2022-08-04T11:16:55.895Z,100690.13
2022-08-04T11:18:06.811Z,100697.09
2022-08-04T11:19:45.376Z,100689.00
2022-08-04T11:20:56.938Z,100686.50
2022-08-04T11:22:10.085Z,100686.28
2022-08-04T11:23:16.482Z,100690.03
2022-08-04T11:24:26.431Z,100700.41
2022-08-04T11:25:33.799Z,100699.66
2022-08-04T11:26:49.392Z,100703.25
2022-08-04T11:28:01.158Z,100695.28
2022-08-04T11:29:15.124Z,100697.19
2022-08-04T11:30:18.310Z,100696.28
2022-08-04T11:31:26.591Z,100686.28
2022-08-04T11:32:37.181Z,100689.28
2022-08-04T11:33:48.650Z,100685.19
2022-08-04T11:34:58.998Z,100685.88
2022-08-04T11:36:04.499Z,100691.31
2022-08-04T11:37:15.173Z,100693.28
2022-08-04T11:38:24.181Z,100684.56
2022-08-04T11:39:37.560Z,100688.34
2022-08-04T11:41:02.349Z,100687.69
2022-08-04T11:42:16.518Z,100683.50
2022-08-04T11:44:00.987Z,100680.78
2022-08-04T11:44:51.744Z,100686.72
2022-08-04T11:45:58.349Z,100690.25
2022-08-04T11:47:05.703Z,100683.72
2022-08-04T11:48:11.642Z,100682.78
2022-08-04T11:49:30.438Z,100683.47
2022-08-04T11:50:38.983Z,100686.41
2022-08-04T11:51:44.819Z,100688.31
2022-08-04T11:52:50.299Z,100677.41
2022-08-04T11:53:52.549Z,100691.56
2022-08-04T11:54:57.166Z,100686.75
2022-08-04T11:56:09.376Z,100685.09
2022-08-04T11:57:14.487Z,100682.59
2022-08-04T11:58:17.176Z,100681.31
2022-08-04T11:59:23.305Z,100688.50
2022-08-04T12:00:30.536Z,100688.13
2022-08-04T12:01:43.396Z,100688.31
2022-08-04T12:03:05.604Z,100682.97
2022-08-04T12:04:18.219Z,100678.44
2022-08-04T12:05:36.624Z,100679.94
2022-08-04T12:06:56.627Z,100679.88
2022-08-04T12:08:27.573Z,100688.09
2022-08-04T12:09:37.388Z,100673.22
2022-08-04T12:10:51.379Z,100667.09
2022-08-04T12:12:03.589Z,100684.72
2022-08-04T12:13:17.351Z,100677.66
2022-08-04T12:14:29.433Z,100672.16
2022-08-04T12:15:37.320Z,100669.00
2022-08-04T12:16:48.400Z,100679.03
2022-08-04T12:17:59.233Z,100674.69
2022-08-04T12:19:17.241Z,100676.72
2022-08-04T12:20:38.355Z,100675.56
2022-08-04T12:21:50.369Z,100672.72
2022-08-04T12:22:57.202Z,100671.84
2022-08-04T12:24:06.445Z,100684.91
2022-08-04T12:25:13.213Z,100674.88
2022-08-04T12:26:23.569Z,100674.44
2022-08-04T12:27:30.710Z,100672.03
2022-08-04T12:29:08.128Z,100670.88
2022-08-04T12:30:58.336Z,100677.22
2022-08-04T12:31:29.620Z,100672.03
2022-08-04T12:32:38.697Z,100680.75
2022-08-04T12:34:04.469Z,100675.13
2022-08-04T12:35:15.949Z,100670.69
2022-08-04T12:36:22.258Z,100666.28
2022-08-04T12:37:38.947Z,100667.09
2022-08-04T12:38:49.202Z,100669.50
2022-08-04T12:40:27.486Z,100670.38
2022-08-04T12:41:35.621Z,100664.06
2022-08-04T12:42:59.591Z,100659.38
2022-08-04T12:44:36.175Z,100655.09
2022-08-04T12:45:35.173Z,100659.66
2022-08-04T12:46:38.209Z,100668.66
2022-08-04T12:47:43.934Z,100660.84
2022-08-04T12:48:48.258Z,100660.19
2022-08-04T12:50:00.151Z,100651.63
2022-08-04T12:51:08.849Z,100656.56
2022-08-04T12:53:01.574Z,100655.19
2022-08-04T12:54:00.015Z,100656.56
2022-08-04T12:55:05.325Z,100647.50
2022-08-04T12:56:11.306Z,100645.97
2022-08-04T12:57:17.020Z,100642.84
2022-08-04T12:58:42.143Z,100645.31
2022-08-04T12:59:56.928Z,100641.84
2022-08-04T13:01:02.281Z,100632.34
2022-08-04T13:02:28.961Z,100634.38
2022-08-04T13:03:38.710Z,100630.38
2022-08-04T13:04:51.528Z,100631.19
2022-08-04T13:05:55.005Z,100635.19
2022-08-04T13:07:02.519Z,100634.38
2022-08-04T13:08:07.585Z,100639.13
2022-08-04T13:09:18.399Z,100636.00
2022-08-04T13:10:22.996Z,100635.28
2022-08-04T13:11:38.500Z,100636.59
2022-08-04T13:12:44.755Z,100637.22
2022-08-04T13:14:10.775Z,100638.19
2022-08-04T13:15:21.797Z,100633.66
2022-08-04T13:16:30.009Z,100627.78
2022-08-04T13:17:47.037Z,100630.66
2022-08-04T13:18:52.588Z,100639.50
2022-08-04T13:19:56.294Z,100635.19
2022-08-04T13:21:20.608Z,100633.22
2022-08-04T13:22:27.363Z,100634.41
2022-08-04T13:24:09.209Z,100632.81
2022-08-04T13:25:18.103Z,100636.38
2022-08-04T13:26:43.429Z,100635.50
2022-08-04T13:27:46.786Z,100632.69
2022-08-04T13:28:54.351Z,100632.66
2022-08-04T13:30:03.266Z,100630.63
2022-08-04T13:31:11.563Z,100622.63
2022-08-04T13:32:18.552Z,100627.44
2022-08-04T13:33:23.729Z,100623.88
2022-08-04T13:34:28.465Z,100625.13
2022-08-04T13:35:55.130Z,100627.63
2022-08-04T13:36:57.123Z,100622.13
2022-08-04T13:38:00.412Z,100623.75
2022-08-04T13:39:08.956Z,100622.94
2022-08-04T13:40:14.276Z,100625.34
2022-08-04T13:41:19.042Z,100616.56
2022-08-04T13:42:23.544Z,100624.97
2022-08-04T13:44:15.363Z,100621.75
2022-08-04T13:44:56.953Z,100619.28
2022-08-04T13:46:02.868Z,100607.69
2022-08-04T13:47:22.666Z,100610.88
2022-08-04T13:48:32.139Z,100612.91
2022-08-04T13:49:42.607Z,100618.13
2022-08-04T13:51:05.065Z,100610.59
2022-08-04T13:52:11.456Z,100607.84
2022-08-04T13:53:22.016Z,100606.31
2022-08-04T13:54:25.194Z,100603.13
2022-08-04T13:55:32.775Z,100604.34
2022-08-04T13:56:40.255Z,100601.50
2022-08-04T13:57:46.515Z,100599.84
2022-08-04T13:58:55.707Z,100600.56
2022-08-04T14:00:03.003Z,100594.09
2022-08-04T14:01:16.186Z,100600.38
2022-08-04T14:02:35.137Z,100593.16
2022-08-04T14:03:54.402Z,100583.13
2022-08-04T14:05:03.053Z,100584.28